Time;durP1;ratioP1;P1;durP2;ratioP2;P2;SDS_P1;SDS_P2;PMS_P1;PMS_P2;Temp;Humidity;BMP_temperature;BMP_pressure;BME280_temperature;BME280_humidity;BME280_pressure;Samples;Min_cycle;Max_cycle;Signal;HPM_P1;HPM_P2
2022/09/28 00:01:20;;;;;;;7.18;4.95;;;;;;;;;;5120388;27;20047;-68
2022/09/28 00:03:46;;;;;;;8.50;4.75;;;;;;;;;;5107983;27;20030;-67
2022/09/28 00:06:12;;;;;;;6.30;3.88;;;;;;;;;;5117733;27;20027;-68
2022/09/28 00:08:38;;;;;;;7.03;4.10;;;;;;;;;;5124940;27;20024;-67
2022/09/28 00:11:04;;;;;;;5.63;3.20;;;;;;;;;;5120568;27;20241;-67
2022/09/28 00:13:32;;;;;;;6.47;3.25;;;;;;;;;;5124893;27;20031;-66
2022/09/28 00:16:01;;;;;;;6.15;3.65;;;;;;;;;;5123343;27;20023;-68
2022/09/28 00:18:27;;;;;;;;;;;;;;;;;;5115232;27;20026;-67
2022/09/28 00:21:04;;;;;;;4.65;3.17;;;;;;;;;;5109130;27;19916;-67
2022/09/28 00:23:30;;;;;;;5.50;2.97;;;;;;;;;;5122778;27;20032;-67
2022/09/28 00:25:55;;;;;;;3.58;2.47;;;;;;;;;;5124123;27;20043;-67
2022/09/28 00:28:20;;;;;;;4.78;2.92;;;;;;;;;;5122847;27;20026;-68
2022/09/28 00:30:46;;;;;;;3.43;2.47;;;;;;;;;;5121120;27;20023;-67
2022/09/28 00:33:11;;;;;;;4.17;2.70;;;;;;;;;;5123266;27;20282;-67
2022/09/28 00:35:36;;;;;;;6.07;2.80;;;;;;;;;;5120089;27;20031;-69
2022/09/28 00:38:02;;;;;;;4.50;2.93;;;;;;;;;;5117069;27;20070;-70
2022/09/28 00:40:28;;;;;;;4.75;2.40;;;;;;;;;;5120126;27;20295;-70
2022/09/28 00:42:53;;;;;;;5.07;2.85;;;;;;;;;;5110731;27;20423;-70
2022/09/28 00:45:18;;;;;;;5.17;2.73;;;;;;;;;;5124348;27;20035;-70
2022/09/28 00:47:44;;;;;;;4.93;2.53;;;;;;;;;;5125471;27;20023;-70
2022/09/28 00:50:15;;;;;;;4.13;2.35;;;;;;;;;;5121284;27;20031;-69
2022/09/28 00:52:54;;;;;;;6.72;2.70;;;;;;;;;;5124615;27;20568;-70
2022/09/28 00:55:24;;;;;;;4.70;2.90;;;;;;;;;;5117585;27;20031;-69
2022/09/28 00:57:49;;;;;;;;;;;;;;;;;;5119588;27;20026;-68
2022/09/28 01:00:14;;;;;;;5.38;2.47;;;;;;;;;;5121481;27;19915;-69
2022/09/28 01:02:40;;;;;;;3.03;2.70;;;;;;;;;;5123073;27;20085;-68
2022/09/28 01:05:06;;;;;;;7.93;2.53;;;;;;;;;;5102081;27;20031;-69
2022/09/28 01:07:32;;;;;;;5.35;2.67;;;;;;;;;;5108018;27;20038;-70
2022/09/28 01:09:57;;;;;;;3.63;2.63;;;;;;;;;;5120726;27;20027;-70
2022/09/28 01:12:23;;;;;;;5.32;2.58;;;;;;;;;;5124174;27;20071;-70
2022/09/28 01:14:49;;;;;;;5.20;2.90;;;;;;;;;;5112095;27;20477;-69
2022/09/28 01:17:33;;;;;;;4.97;2.65;;;;;;;;;;5117696;27;20405;-69
2022/09/28 01:19:58;;;;;;;4.18;3.00;;;;;;;;;;5125363;27;20068;-69
2022/09/28 01:22:39;;;;;;;5.00;2.77;;;;;;;;;;5116642;27;20062;-67
2022/09/28 01:25:24;;;;;;;4.47;2.97;;;;;;;;;;5122623;27;20280;-69
2022/09/28 01:28:07;;;;;;;6.13;2.80;;;;;;;;;;5123563;27;20092;-66
2022/09/28 01:30:38;;;;;;;4.15;2.90;;;;;;;;;;5120315;27;20469;-67
2022/09/28 01:33:09;;;;;;;4.45;3.00;;;;;;;;;;5115758;27;20474;-67
2022/09/28 01:35:47;;;;;;;5.35;3.28;;;;;;;;;;5120674;27;20035;-66
2022/09/28 01:38:25;;;;;;;4.10;3.03;;;;;;;;;;5121469;27;20041;-66
2022/09/28 01:40:51;;;;;;;5.22;2.92;;;;;;;;;;5122948;27;20062;-68
2022/09/28 01:43:18;;;;;;;6.93;2.63;;;;;;;;;;5120318;27;20047;-66
2022/09/28 01:45:48;;;;;;;13.48;3.22;;;;;;;;;;5120459;27;20035;-66
2022/09/28 01:48:17;;;;;;;6.00;3.30;;;;;;;;;;5122468;27;20023;-66
2022/09/28 01:50:44;;;;;;;6.10;4.00;;;;;;;;;;5117793;27;20039;-67
2022/09/28 01:53:19;;;;;;;6.13;3.30;;;;;;;;;;5123012;27;20030;-66
2022/09/28 01:55:48;;;;;;;5.68;3.42;;;;;;;;;;5106946;27;20034;-66
2022/09/28 01:58:13;;;;;;;10.68;3.55;;;;;;;;;;5120926;27;20697;-67
2022/09/28 02:00:41;;;;;;;4.37;2.80;;;;;;;;;;5103369;27;20031;-67
2022/09/28 02:03:25;;;;;;;7.13;3.75;;;;;;;;;;5116234;27;20031;-67
2022/09/28 02:05:53;;;;;;;4.13;3.13;;;;;;;;;;5120539;27;20015;-67
2022/09/28 02:08:18;;;;;;;4.80;2.80;;;;;;;;;;5121150;27;20027;-67
2022/09/28 02:10:53;;;;;;;5.65;3.38;;;;;;;;;;5106259;27;20160;-67
2022/09/28 02:13:20;;;;;;;5.00;3.35;;;;;;;;;;5125993;27;20031;-66
2022/09/28 02:15:46;;;;;;;9.45;3.70;;;;;;;;;;5113942;27;20038;-67
2022/09/28 02:18:11;;;;;;;5.50;4.10;;;;;;;;;;5104116;27;20023;-66
2022/09/28 02:20:39;;;;;;;5.35;3.22;;;;;;;;;;5116515;27;20279;-67
2022/09/28 02:23:06;;;;;;;5.57;3.35;;;;;;;;;;5117398;27;20026;-66
2022/09/28 02:25:46;;;;;;;6.22;3.30;;;;;;;;;;5122585;27;20054;-68
2022/09/28 02:28:14;;;;;;;8.30;3.63;;;;;;;;;;5117832;27;20063;-66
2022/09/28 02:30:42;;;;;;;5.05;3.08;;;;;;;;;;5124803;27;20030;-66
2022/09/28 02:33:12;;;;;;;8.88;3.75;;;;;;;;;;5123195;27;20027;-66
2022/09/28 02:35:39;;;;;;;6.80;3.88;;;;;;;;;;5122460;27;20018;-67
2022/09/28 02:38:04;;;;;;;5.82;3.72;;;;;;;;;;5118640;27;20058;-66
2022/09/28 02:40:31;;;;;;;6.27;4.03;;;;;;;;;;5118439;27;20461;-66
2022/09/28 02:43:15;;;;;;;6.68;4.35;;;;;;;;;;5118131;27;20621;-66
2022/09/28 02:45:45;;;;;;;6.95;4.10;;;;;;;;;;5106162;27;20050;-67
2022/09/28 02:48:10;;;;;;;5.40;3.88;;;;;;;;;;5116185;27;20071;-66
2022/09/28 02:50:44;;;;;;;10.00;4.60;;;;;;;;;;5119187;27;20027;-65
2022/09/28 02:53:39;;;;;;;8.63;5.10;;;;;;;;;;5112527;27;20055;-67
2022/09/28 02:56:28;;;;;;;8.82;4.70;;;;;;;;;;5092452;27;20485;-66
2022/09/28 02:59:02;;;;;;;7.38;4.30;;;;;;;;;;5121097;27;20028;-66
2022/09/28 03:01:33;;;;;;;9.02;5.00;;;;;;;;;;5121908;27;20047;-66
2022/09/28 03:04:17;;;;;;;6.43;4.50;;;;;;;;;;5120269;27;20027;-67
2022/09/28 03:06:49;;;;;;;6.32;4.25;;;;;;;;;;5122021;27;20035;-66
2022/09/28 03:09:24;;;;;;;9.38;4.88;;;;;;;;;;5097920;28;20111;-66
2022/09/28 03:11:54;;;;;;;8.57;4.70;;;;;;;;;;5121926;27;20024;-68
2022/09/28 03:14:19;;;;;;;9.30;4.97;;;;;;;;;;5121052;27;20055;-69
2022/09/28 03:16:45;;;;;;;8.63;4.75;;;;;;;;;;5117157;27;20477;-70
2022/09/28 03:19:11;;;;;;;11.15;5.63;;;;;;;;;;5119324;27;20103;-69
2022/09/28 03:21:36;;;;;;;6.90;5.00;;;;;;;;;;5116550;27;20023;-69
2022/09/28 03:24:03;;;;;;;12.68;5.30;;;;;;;;;;5122121;27;20054;-69
2022/09/28 03:26:28;;;;;;;9.15;5.47;;;;;;;;;;5122324;27;20073;-70
2022/09/28 03:28:54;;;;;;;10.80;5.00;;;;;;;;;;5116848;27;20661;-70
2022/09/28 03:31:19;;;;;;;9.43;5.37;;;;;;;;;;5108289;27;20027;-69
2022/09/28 03:33:44;;;;;;;9.53;4.90;;;;;;;;;;5118100;27;20024;-70
2022/09/28 03:36:09;;;;;;;8.83;5.23;;;;;;;;;;5121150;27;20768;-70
2022/09/28 03:38:35;;;;;;;7.87;4.87;;;;;;;;;;5117010;27;20272;-70
2022/09/28 03:41:00;;;;;;;8.07;5.20;;;;;;;;;;5119191;27;20790;-69
2022/09/28 03:43:26;;;;;;;10.57;4.95;;;;;;;;;;5118469;28;20035;-69
2022/09/28 03:45:55;;;;;;;10.40;5.15;;;;;;;;;;5117171;28;20019;-69
2022/09/28 03:48:24;;;;;;;12.02;5.40;;;;;;;;;;5115575;27;20023;-70
2022/09/28 03:50:56;;;;;;;11.18;5.63;;;;;;;;;;5104040;28;20100;-70
2022/09/28 03:53:21;;;;;;;9.55;5.50;;;;;;;;;;5105584;28;20503;-70
2022/09/28 03:55:47;;;;;;;12.00;5.40;;;;;;;;;;5118749;28;20169;-68
2022/09/28 03:58:12;;;;;;;9.27;5.22;;;;;;;;;;5114682;28;20101;-70
2022/09/28 04:00:38;;;;;;;10.48;5.20;;;;;;;;;;5116874;28;20028;-70
2022/09/28 04:03:03;;;;;;;9.73;5.47;;;;;;;;;;5103357;28;20031;-71
2022/09/28 04:05:28;;;;;;;8.55;5.30;;;;;;;;;;5102891;28;20320;-69
2022/09/28 04:07:56;;;;;;;10.23;5.13;;;;;;;;;;5105829;28;20433;-70
2022/09/28 04:10:21;;;;;;;10.27;5.68;;;;;;;;;;5106697;28;20084;-68
2022/09/28 04:12:48;;;;;;;11.27;5.50;;;;;;;;;;5118889;28;20047;-70
2022/09/28 04:15:14;;;;;;;12.32;6.50;;;;;;;;;;5120688;28;20035;-71
2022/09/28 04:17:39;;;;;;;14.23;6.85;;;;;;;;;;5120220;28;20026;-69
2022/09/28 04:20:05;;;;;;;12.27;7.27;;;;;;;;;;5105326;28;20054;-69
2022/09/28 04:22:31;;;;;;;13.10;7.40;;;;;;;;;;5115947;28;20118;-70
2022/09/28 04:24:56;;;;;;;11.05;7.13;;;;;;;;;;5103807;28;20091;-69
2022/09/28 04:30:05;;;;;;;10.75;6.05;;;;;;;;;;5118593;28;20708;-69
2022/09/28 04:32:30;;;;;;;12.70;6.80;;;;;;;;;;5115389;28;20038;-69
2022/09/28 04:34:56;;;;;;;13.40;6.43;;;;;;;;;;5116275;28;20070;-69
2022/09/28 04:37:21;;;;;;;11.90;6.00;;;;;;;;;;5119355;28;20024;-69
2022/09/28 04:39:46;;;;;;;11.63;6.40;;;;;;;;;;5107576;28;20860;-69
2022/09/28 04:42:12;;;;;;;12.23;6.30;;;;;;;;;;5111477;28;20023;-69
2022/09/28 04:44:37;;;;;;;15.20;6.63;;;;;;;;;;5122194;27;20295;-69
2022/09/28 04:47:02;;;;;;;11.37;6.17;;;;;;;;;;5102684;27;20187;-70
2022/09/28 04:49:28;;;;;;;11.17;5.97;;;;;;;;;;5119431;27;20031;-71
2022/09/28 04:51:53;;;;;;;10.90;6.30;;;;;;;;;;5120685;27;20190;-69
2022/09/28 04:54:18;;;;;;;11.20;6.53;;;;;;;;;;5116221;27;20030;-69
2022/09/28 04:56:44;;;;;;;11.20;6.00;;;;;;;;;;5120602;27;20836;-69
2022/09/28 04:59:09;;;;;;;10.23;5.88;;;;;;;;;;5126065;27;20027;-69
2022/09/28 05:01:34;;;;;;;13.77;8.07;;;;;;;;;;5108251;27;20392;-69
2022/09/28 05:03:59;;;;;;;12.87;7.67;;;;;;;;;;5122864;27;20282;-70
2022/09/28 05:06:27;;;;;;;11.52;7.60;;;;;;;;;;5103195;27;20152;-70
2022/09/28 05:08:52;;;;;;;23.58;9.80;;;;;;;;;;5123534;27;20027;-69
2022/09/28 05:11:20;;;;;;;28.05;10.73;;;;;;;;;;5105682;27;20027;-69
2022/09/28 05:13:47;;;;;;;36.28;12.05;;;;;;;;;;5111316;27;20034;-70
2022/09/28 05:16:14;;;;;;;31.38;11.20;;;;;;;;;;5120012;27;20035;-70
2022/09/28 05:18:39;;;;;;;15.35;8.10;;;;;;;;;;5123167;27;20042;-70
2022/09/28 05:21:08;;;;;;;13.17;7.40;;;;;;;;;;5119620;27;20019;-70
2022/09/28 05:23:34;;;;;;;13.68;7.88;;;;;;;;;;5118424;27;20301;-71
2022/09/28 05:26:02;;;;;;;12.80;7.53;;;;;;;;;;5115181;27;20039;-72
2022/09/28 05:28:28;;;;;;;12.35;6.88;;;;;;;;;;5125866;27;20038;-70
2022/09/28 05:31:12;;;;;;;13.88;7.82;;;;;;;;;;5116643;27;20098;-71
2022/09/28 05:33:37;;;;;;;11.88;6.82;;;;;;;;;;5110649;27;20996;-72
2022/09/28 05:36:03;;;;;;;12.15;6.53;;;;;;;;;;5105460;27;20045;-70
2022/09/28 05:38:28;;;;;;;10.27;6.45;;;;;;;;;;5115830;27;20031;-70
2022/09/28 05:40:54;;;;;;;11.70;7.55;;;;;;;;;;5120313;27;20110;-71
2022/09/28 05:43:19;;;;;;;13.67;8.17;;;;;;;;;;5120064;27;20024;-71
2022/09/28 05:45:44;;;;;;;15.07;8.67;;;;;;;;;;5117778;27;20503;-71
2022/09/28 05:48:09;;;;;;;11.50;6.80;;;;;;;;;;5120081;27;20282;-70
2022/09/28 05:50:35;;;;;;;7.77;4.90;;;;;;;;;;5123358;27;20752;-70
2022/09/28 05:53:01;;;;;;;10.25;5.53;;;;;;;;;;5121580;27;20279;-70
2022/09/28 05:55:27;;;;;;;10.13;4.93;;;;;;;;;;5117097;27;20036;-70
2022/09/28 05:57:52;;;;;;;7.65;4.82;;;;;;;;;;5123123;27;20080;-69
2022/09/28 06:00:18;;;;;;;11.47;6.47;;;;;;;;;;5119220;27;20038;-70
2022/09/28 06:02:43;;;;;;;9.90;6.03;;;;;;;;;;5117191;27;20274;-71
2022/09/28 06:05:09;;;;;;;12.60;6.35;;;;;;;;;;5122328;27;20027;-70
2022/09/28 06:07:34;;;;;;;10.65;6.32;;;;;;;;;;5121671;27;20059;-70
2022/09/28 06:10:00;;;;;;;9.77;6.17;;;;;;;;;;5118400;27;20485;-71
2022/09/28 06:12:25;;;;;;;9.93;6.20;;;;;;;;;;5117941;27;20404;-70
2022/09/28 06:14:51;;;;;;;10.07;5.90;;;;;;;;;;5118407;27;20035;-70
2022/09/28 06:17:16;;;;;;;8.83;5.90;;;;;;;;;;5118176;27;20034;-70
2022/09/28 06:19:41;;;;;;;12.57;6.13;;;;;;;;;;5114138;27;20282;-70
2022/09/28 06:22:06;;;;;;;12.87;6.50;;;;;;;;;;5114457;27;20431;-71
2022/09/28 06:24:32;;;;;;;8.68;5.47;;;;;;;;;;5119444;27;20028;-69
2022/09/28 06:26:57;;;;;;;10.20;6.10;;;;;;;;;;5114141;27;20046;-70
2022/09/28 06:29:22;;;;;;;12.07;6.70;;;;;;;;;;5105932;27;20328;-71
2022/09/28 06:31:47;;;;;;;12.67;7.07;;;;;;;;;;5119035;27;20314;-72
2022/09/28 06:34:13;;;;;;;11.23;7.35;;;;;;;;;;5119663;27;20171;-71
2022/09/28 06:36:38;;;;;;;11.30;6.50;;;;;;;;;;5120628;27;20050;-72
2022/09/28 06:39:04;;;;;;;8.55;5.57;;;;;;;;;;5107545;27;20039;-71
2022/09/28 06:41:29;;;;;;;11.38;6.75;;;;;;;;;;5120342;27;20050;-71
2022/09/28 06:43:55;;;;;;;12.05;7.10;;;;;;;;;;5125302;27;20555;-68
2022/09/28 06:46:20;;;;;;;14.50;7.65;;;;;;;;;;5116003;27;20035;-68
2022/09/28 06:48:46;;;;;;;11.63;6.15;;;;;;;;;;5114260;27;20046;-69
2022/09/28 06:51:11;;;;;;;9.82;4.40;;;;;;;;;;5118348;27;20030;-69
2022/09/28 06:53:36;;;;;;;5.80;4.30;;;;;;;;;;5115451;27;20023;-68
2022/09/28 06:56:01;;;;;;;8.30;5.03;;;;;;;;;;5125315;27;20267;-68
2022/09/28 06:58:27;;;;;;;7.90;4.10;;;;;;;;;;5115345;27;20031;-68
2022/09/28 07:00:52;;;;;;;8.37;4.67;;;;;;;;;;5122932;27;20283;-68
2022/09/28 07:03:21;;;;;;;7.28;4.22;;;;;;;;;;5116024;27;20156;-71
2022/09/28 07:05:52;;;;;;;8.65;4.00;;;;;;;;;;5119013;27;20031;-71
2022/09/28 07:08:19;;;;;;;13.25;6.90;;;;;;;;;;5115684;27;20031;-71
2022/09/28 07:10:45;;;;;;;16.52;7.13;;;;;;;;;;5118053;27;20030;-71
2022/09/28 07:13:12;;;;;;;13.32;4.85;;;;;;;;;;5118448;27;20519;-70
2022/09/28 07:15:37;;;;;;;7.05;4.00;;;;;;;;;;5114404;27;20038;-70
2022/09/28 07:18:04;;;;;;;5.35;3.42;;;;;;;;;;5113242;27;20024;-71
2022/09/28 07:20:30;;;;;;;8.45;3.47;;;;;;;;;;5122115;27;20019;-68
2022/09/28 07:22:56;;;;;;;6.18;3.80;;;;;;;;;;5115626;27;20031;-71
2022/09/28 07:25:22;;;;;;;9.07;4.88;;;;;;;;;;5109769;27;20032;-71
2022/09/28 07:27:47;;;;;;;10.02;5.72;;;;;;;;;;5120969;27;20058;-67
2022/09/28 07:30:13;;;;;;;9.10;5.17;;;;;;;;;;5120267;27;20100;-71
2022/09/28 07:32:39;;;;;;;8.25;5.63;;;;;;;;;;5121842;27;20030;-70
2022/09/28 07:35:07;;;;;;;349.08;56.83;;;;;;;;;;5121351;27;20030;-70
2022/09/28 07:37:32;;;;;;;16.42;10.95;;;;;;;;;;5116444;27;20070;-70
2022/09/28 07:42:41;;;;;;;7.28;4.78;;;;;;;;;;5118590;27;20030;-68
2022/09/28 07:45:07;;;;;;;9.60;4.93;;;;;;;;;;5116633;27;20023;-66
2022/09/28 07:47:32;;;;;;;7.82;4.75;;;;;;;;;;5115519;27;20272;-69
2022/09/28 07:49:57;;;;;;;10.23;5.30;;;;;;;;;;5120870;28;20104;-69
2022/09/28 07:52:24;;;;;;;8.87;5.57;;;;;;;;;;5115708;28;20023;-72
2022/09/28 07:54:51;;;;;;;9.15;5.50;;;;;;;;;;5118456;28;20035;-71
2022/09/28 07:57:18;;;;;;;10.98;5.35;;;;;;;;;;5118117;28;20051;-72
2022/09/28 07:59:43;;;;;;;12.30;6.18;;;;;;;;;;5119002;28;20028;-71
2022/09/28 08:02:09;;;;;;;13.47;6.53;;;;;;;;;;5124154;28;20439;-72
2022/09/28 08:04:34;;;;;;;11.23;6.25;;;;;;;;;;5108968;28;20289;-72
2022/09/28 08:06:59;;;;;;;8.77;6.20;;;;;;;;;;5118922;28;20057;-69
2022/09/28 08:09:25;;;;;;;10.97;5.80;;;;;;;;;;5125008;28;20043;-69
2022/09/28 08:11:50;;;;;;;9.83;6.00;;;;;;;;;;5123156;28;20293;-69
2022/09/28 08:14:15;;;;;;;9.17;6.10;;;;;;;;;;5119259;28;20710;-69
2022/09/28 08:16:44;;;;;;;16.80;7.75;;;;;;;;;;5118140;28;20284;-69
2022/09/28 08:19:09;;;;;;;11.15;6.32;;;;;;;;;;5107395;28;20473;-69
2022/09/28 08:21:44;;;;;;;13.98;6.85;;;;;;;;;;5111628;27;20037;-69
2022/09/28 08:24:09;;;;;;;12.27;6.25;;;;;;;;;;5109133;27;20027;-69
2022/09/28 08:26:35;;;;;;;7.75;4.75;;;;;;;;;;5124535;27;20523;-71
2022/09/28 08:29:00;;;;;;;7.40;4.95;;;;;;;;;;5127428;27;20023;-71
2022/09/28 08:31:26;;;;;;;8.48;5.60;;;;;;;;;;5123341;27;20023;-71
2022/09/28 08:33:52;;;;;;;8.82;5.35;;;;;;;;;;5120513;27;20131;-71
2022/09/28 08:36:18;;;;;;;7.60;5.38;;;;;;;;;;5109526;27;20030;-70
2022/09/28 08:38:43;;;;;;;8.43;5.43;;;;;;;;;;5126588;27;20369;-71
2022/09/28 08:41:11;;;;;;;9.33;5.40;;;;;;;;;;5123907;27;20105;-71
2022/09/28 08:43:55;;;;;;;8.20;5.20;;;;;;;;;;5117841;27;20268;-70
2022/09/28 08:46:23;;;;;;;8.52;5.45;;;;;;;;;;5122132;27;20027;-70
2022/09/28 08:48:53;;;;;;;7.75;5.32;;;;;;;;;;5120952;27;20031;-71
2022/09/28 08:51:41;;;;;;;7.97;5.30;;;;;;;;;;5122676;27;20019;-71
2022/09/28 08:54:17;;;;;;;9.13;5.05;;;;;;;;;;5124235;27;20051;-71
2022/09/28 08:56:51;;;;;;;7.45;5.15;;;;;;;;;;5122189;27;20070;-71
2022/09/28 08:59:19;;;;;;;7.65;5.10;;;;;;;;;;5127078;27;20058;-71
2022/09/28 09:02:05;;;;;;;9.52;5.45;;;;;;;;;;5120743;27;20047;-72
2022/09/28 09:04:32;;;;;;;10.13;5.20;;;;;;;;;;5126280;27;20039;-72
2022/09/28 09:07:06;;;;;;;8.45;5.05;;;;;;;;;;5125100;27;20023;-72
2022/09/28 09:09:31;;;;;;;8.73;4.43;;;;;;;;;;5128063;27;20015;-71
2022/09/28 09:12:13;;;;;;;6.43;4.00;;;;;;;;;;5124545;27;20030;-70
2022/09/28 09:14:38;;;;;;;8.38;4.63;;;;;;;;;;5124455;27;20110;-70
2022/09/28 09:17:12;;;;;;;6.07;4.37;;;;;;;;;;5126567;27;20118;-70
2022/09/28 09:19:49;;;;;;;8.23;4.13;;;;;;;;;;5106999;28;20336;-73
2022/09/28 09:22:16;;;;;;;7.55;4.28;;;;;;;;;;5117439;27;20058;-73
2022/09/28 09:24:49;;;;;;;6.75;4.78;;;;;;;;;;5120097;27;20034;-73
2022/09/28 09:27:17;;;;;;;6.05;3.97;;;;;;;;;;5124108;27;20047;-71
2022/09/28 09:29:45;;;;;;;9.15;4.57;;;;;;;;;;5107665;27;20342;-70
2022/09/28 09:32:27;;;;;;;5.43;4.00;;;;;;;;;;5117026;27;20102;-70
2022/09/28 09:35:12;;;;;;;6.10;3.78;;;;;;;;;;5117736;27;20371;-71
2022/09/28 09:37:52;;;;;;;6.97;3.67;;;;;;;;;;5121953;27;20366;-70
2022/09/28 09:40:18;;;;;;;7.78;3.95;;;;;;;;;;5100864;27;20054;-70
2022/09/28 09:43:09;;;;;;;7.10;3.97;;;;;;;;;;5122035;27;20027;-70
2022/09/28 09:45:51;;;;;;;6.45;4.00;;;;;;;;;;5110498;27;20386;-70
2022/09/28 09:48:21;;;;;;;5.97;3.60;;;;;;;;;;5120853;27;20465;-70
2022/09/28 09:50:49;;;;;;;6.82;3.63;;;;;;;;;;5123144;27;20477;-70
2022/09/28 09:53:14;;;;;;;5.13;3.67;;;;;;;;;;5122862;27;20400;-71
2022/09/28 09:55:44;;;;;;;8.53;3.47;;;;;;;;;;5116533;27;20038;-71
2022/09/28 09:58:13;;;;;;;6.35;3.30;;;;;;;;;;5116974;27;20325;-71
2022/09/28 10:00:43;;;;;;;5.80;3.20;;;;;;;;;;5117552;27;20023;-69
2022/09/28 10:03:29;;;;;;;3.65;2.75;;;;;;;;;;5114819;27;20031;-69
2022/09/28 10:06:04;;;;;;;3.47;2.38;;;;;;;;;;5119975;27;20036;-70
2022/09/28 10:08:33;;;;;;;6.13;2.17;;;;;;;;;;5120921;27;20027;-71
2022/09/28 10:11:10;;;;;;;3.90;2.40;;;;;;;;;;5119869;27;20022;-71
2022/09/28 10:13:35;;;;;;;4.57;2.75;;;;;;;;;;5104242;28;20485;-71
2022/09/28 10:16:01;;;;;;;5.07;2.42;;;;;;;;;;5119954;27;20027;-69
2022/09/28 10:18:27;;;;;;;4.07;2.42;;;;;;;;;;5117966;27;20035;-70
2022/09/28 10:20:52;;;;;;;3.85;2.70;;;;;;;;;;5121491;27;20023;-71
2022/09/28 10:23:23;;;;;;;3.20;2.33;;;;;;;;;;5123031;27;20508;-70
2022/09/28 10:25:51;;;;;;;3.90;2.78;;;;;;;;;;5118213;27;20287;-70
2022/09/28 10:28:24;;;;;;;3.38;2.00;;;;;;;;;;5120585;27;20023;-71
2022/09/28 10:30:49;;;;;;;4.38;2.30;;;;;;;;;;5119164;27;20023;-71
2022/09/28 10:33:26;;;;;;;3.38;2.63;;;;;;;;;;5120316;27;20030;-70
2022/09/28 10:35:51;;;;;;;3.38;2.65;;;;;;;;;;5117011;27;20031;-70
2022/09/28 10:38:17;;;;;;;3.53;1.80;;;;;;;;;;5118182;27;20098;-71
2022/09/28 10:40:47;;;;;;;4.43;2.05;;;;;;;;;;5118103;27;20030;-71
2022/09/28 10:43:29;;;;;;;3.42;1.80;;;;;;;;;;5124628;27;20381;-70
2022/09/28 10:46:03;;;;;;;3.00;1.90;;;;;;;;;;5116234;27;20119;-70
2022/09/28 10:48:32;;;;;;;7.80;2.58;;;;;;;;;;5121175;27;20073;-71
2022/09/28 10:51:01;;;;;;;3.70;2.45;;;;;;;;;;5119364;27;20030;-70
2022/09/28 10:53:27;;;;;;;5.50;1.85;;;;;;;;;;5121332;27;20071;-70
2022/09/28 10:56:03;;;;;;;2.87;1.70;;;;;;;;;;5119529;27;20473;-71
2022/09/28 10:58:39;;;;;;;5.18;1.98;;;;;;;;;;5122000;27;20035;-71
2022/09/28 11:01:09;;;;;;;4.00;2.05;;;;;;;;;;5118847;27;20055;-71
2022/09/28 11:03:40;;;;;;;3.25;1.95;;;;;;;;;;5119515;27;20088;-67
2022/09/28 11:06:07;;;;;;;3.15;2.00;;;;;;;16.46;nan;99457.59;5116930;27;20051;-68
2022/09/28 11:08:42;;;;;;;2.15;1.65;;;;;;;;;;5117674;27;20027;-68
2022/09/28 11:11:11;;;;;;;3.80;1.98;;;;;;;;;;5113822;27;20373;-68
2022/09/28 11:13:36;;;;;;;;;;;;;;;;;;5118495;27;20155;-68
2022/09/28 11:16:02;;;;;;;3.67;2.03;;;;;;;;;;5112440;27;19933;-69
2022/09/28 11:18:30;;;;;;;6.03;2.72;;;;;;;;;;5112785;27;20031;-68
2022/09/28 11:21:15;;;;;;;3.20;1.92;;;;;;;;;;5116417;27;20026;-68
2022/09/28 11:23:43;;;;;;;1.65;1.30;;;;;;;;;;5115799;27;20039;-68
2022/09/28 11:26:11;;;;;;;1.55;1.00;;;;;;;;;;5114435;27;20039;-67
2022/09/28 11:28:37;;;;;;;1.63;1.13;;;;;;;;;;5118065;27;20054;-67
2022/09/28 11:31:05;;;;;;;2.15;1.40;;;;;;;;;;5117117;27;20102;-68
2022/09/28 11:33:37;;;;;;;3.70;1.23;;;;;;;;;;5117534;27;20023;-68
2022/09/28 11:36:03;;;;;;;1.85;1.27;;;;;;;;;;5116604;27;20025;-68
2022/09/28 11:38:39;;;;;;;3.25;1.33;;;;;;;16.96;nan;99415.41;5116636;27;20110;-68
2022/09/28 11:41:22;;;;;;;2.08;1.52;;;;;;;;;;5113213;27;20031;-68
2022/09/28 11:44:09;;;;;;;4.45;1.60;;;;;;;;;;5116865;27;20051;-67
2022/09/28 11:46:43;;;;;;;2.20;1.27;;;;;;;;;;5119049;27;20043;-68
2022/09/28 11:49:34;;;;;;;3.22;1.63;;;;;;;;;;5114808;27;20026;-68
2022/09/28 11:52:03;;;;;;;3.85;1.58;;;;;;;;;;5115052;28;20039;-68
2022/09/28 11:54:38;;;;;;;1.73;1.40;;;;;;;;;;5117580;27;20042;-68
2022/09/28 11:57:05;;;;;;;1.88;1.42;;;;;;;;;;5114510;28;20059;-68
2022/09/28 11:59:37;;;;;;;2.67;1.38;;;;;;;;;;5123268;28;20098;-68
2022/09/28 12:02:12;;;;;;;2.40;1.10;;;;;;;;;;5121024;28;20122;-68
2022/09/28 12:04:40;;;;;;;2.08;1.30;;;;;;;;;;5115055;28;20027;-68
2022/09/28 12:07:07;;;;;;;2.50;1.90;;;;;;;;;;5118670;28;20510;-68
2022/09/28 12:10:09;;;;;;;1.73;1.10;;;;;;;;;;5117372;28;20024;-68
2022/09/28 12:12:37;;;;;;;1.80;1.40;;;;;;;;;;5025114;28;20039;-68
2022/09/28 12:15:22;;;;;;;3.17;1.40;;;;;;;;;;5024024;28;20045;-68
2022/09/28 12:17:50;;;;;;;4.82;1.90;;;;;;;;;;5024534;28;20043;-67
2022/09/28 12:20:16;;;;;;;2.03;1.30;;;;;;;;;;5023209;28;20037;-68
2022/09/28 12:23:07;;;;;;;2.67;1.35;;;;;;;;;;5006368;28;20029;-68
2022/09/28 12:25:39;;;;;;;2.95;1.30;;;;;;;;;;5018037;28;20152;-67
2022/09/28 12:28:06;;;;;;;1.77;1.30;;;;;;;;;;5026691;28;20096;-67
2022/09/28 12:30:34;;;;;;;2.58;1.50;;;;;;;;;;5023407;28;20068;-68
2022/09/28 12:32:59;;;;;;;3.38;1.13;;;;;;;;;;5002000;28;20034;-68
2022/09/28 12:35:27;;;;;;;1.27;1.10;;;;;;;;;;5020029;28;20040;-67
2022/09/28 12:38:11;;;;;;;3.33;1.38;;;;;;;;;;5024872;28;20037;-68
2022/09/28 12:40:40;;;;;;;1.88;1.20;;;;;;;;;;5022696;28;20074;-67
2022/09/28 12:43:18;;;;;;;1.95;1.17;;;;;;;;;;5021131;28;20033;-68
2022/09/28 12:46:03;;;;;;;1.20;1.10;;;;;;;;;;5035031;28;20420;-68
2022/09/28 12:48:47;;;;;;;4.30;1.10;;;;;;;;;;5096520;28;20032;-68
2022/09/28 12:51:12;;;;;;;3.38;1.17;;;;;;;;;;5093056;28;20521;-68
2022/09/28 12:53:37;;;;;;;2.43;1.23;;;;;;;;;;5095337;28;20111;-68
2022/09/28 12:56:05;;;;;;;1.67;1.30;;;;;;;;;;5096483;28;20642;-68
2022/09/28 12:58:40;;;;;;;1.27;1.10;;;;;;;;;;5099008;28;20442;-68
2022/09/28 13:01:08;;;;;;;2.88;1.00;;;;;;;;;;5096934;28;20080;-68
2022/09/28 13:03:57;;;;;;;1.20;1.10;;;;;;;18.36;nan;99329.88;5093422;28;20445;-66
2022/09/28 13:06:44;;;;;;;1.17;0.98;;;;;;;18.42;nan;99331.34;5102408;28;20031;-71
2022/09/28 13:09:21;;;;;;;1.58;1.20;;;;;;;18.50;nan;99317.28;5097773;28;20063;-70
2022/09/28 13:12:01;;;;;;;3.28;1.08;;;;;;;18.50;nan;99318.06;5097172;28;20515;-72
2022/09/28 13:14:55;;;;;;;1.30;0.80;;;;;;;18.41;nan;99282.56;5099829;28;20073;-71
2022/09/28 13:17:27;;;;;;;1.55;1.20;;;;;;;;;;5101143;28;20380;-71
2022/09/28 13:19:57;;;;;;;2.08;0.90;;;;;;;18.41;nan;99333.22;5104793;28;20039;-71
2022/09/28 13:22:45;;;;;;;0.80;0.70;;;;;;;18.24;nan;99285.91;5096303;28;20063;-72
2022/09/28 13:25:16;;;;;;;2.28;0.80;;;;;;;;;;5102583;28;20465;-71
2022/09/28 13:27:45;;;;;;;3.97;1.20;;;;;;;;;;5119980;27;20524;-71
2022/09/28 13:30:16;;;;;;;2.38;1.00;;;;;;;18.29;nan;99322.28;5128762;27;20035;-71
2022/09/28 13:32:42;;;;;;;3.25;0.98;;;;;;;18.28;nan;99318.84;5118904;27;20050;-71
2022/09/28 13:35:15;;;;;;;2.30;1.10;;;;;;;;;;5125364;27;20531;-71
2022/09/28 13:37:40;;;;;;;2.30;0.80;;;;;;;;;;5120630;27;20023;-71
2022/09/28 13:40:06;;;;;;;3.17;0.90;;;;;;;18.27;nan;99305.84;5118845;27;20381;-70
2022/09/28 13:42:43;;;;;;;2.13;0.98;;;;;;;18.34;nan;99281.41;5120948;27;20275;-71
2022/09/28 13:45:15;;;;;;;1.13;1.00;;;;;;;;;;5123920;27;20481;-71
2022/09/28 13:47:54;;;;;;;4.30;1.00;;;;;;;18.46;nan;99297.63;5124357;27;20027;-72
2022/09/28 13:50:22;;;;;;;0.95;0.82;;;;;;;18.57;nan;99298.19;5119465;27;20098;-71
2022/09/28 13:52:50;;;;;;;1.50;1.07;;;;;;;18.56;nan;99296.63;5124922;27;20124;-71
2022/09/28 13:55:31;;;;;;;1.73;1.00;;;;;;;18.46;nan;99247.00;5121802;27;20019;-70
2022/09/28 13:58:03;;;;;;;1.00;0.80;;;;;;;18.53;nan;99281.22;5120072;27;20019;-70
2022/09/28 14:00:44;;;;;;;1.50;0.80;;;;;;;18.34;nan;99266.22;5122538;27;20031;-70
2022/09/28 14:03:22;;;;;;;2.00;1.00;;;;;;;18.50;nan;99286.06;5125194;27;20019;-70
2022/09/28 14:05:59;;;;;;;1.00;0.73;;;;;;;18.52;nan;99274.31;5123480;27;20031;-73
2022/09/28 14:08:35;;;;;;;1.00;0.77;;;;;;;18.46;nan;99293.13;5119126;27;20027;-73
2022/09/28 14:11:35;;;;;;;1.65;0.85;;;;;;;18.47;nan;99285.91;5118153;27;20015;-72
2022/09/28 14:14:06;;;;;;;3.42;1.85;;;;;;;18.46;nan;99294.97;5120563;27;20054;-72
2022/09/28 14:16:34;;;;;;;1.77;1.35;;;;;;;18.43;nan;99271.59;5122012;27;20067;-73
2022/09/28 14:19:18;;;;;;;1.02;0.93;;;;;;;18.44;nan;99294.50;5119773;27;20030;-72
2022/09/28 14:22:15;;;;;;;6.85;3.50;;;;;;;18.42;nan;99257.47;5117505;27;20034;-72
2022/09/28 14:24:46;;;;;;;4.93;3.00;;;;;;;18.38;nan;99271.72;5087723;27;20520;-71
2022/09/28 14:27:22;;;;;;;3.67;1.50;;;;;;;18.37;nan;99270.16;5115319;27;20117;-72
2022/09/28 14:29:52;;;;;;;6.85;1.27;;;;;;;;;;5124584;27;20077;-72
2022/09/28 14:32:23;;;;;;;1.58;0.98;;;;;;;18.35;nan;99270.47;5108263;27;20034;-73
2022/09/28 14:34:58;;;;;;;2.03;1.00;;;;;;;18.33;nan;99271.84;5119858;27;20027;-72
2022/09/28 14:43:23;;;;;;;3.95;1.30;;;;;;;18.33;nan;99269.97;5119432;27;20511;-72
2022/09/28 14:45:49;;;;;;;1.77;1.25;;;;;;;;;;5123984;27;20121;-72
2022/09/28 14:48:19;;;;;;;6.35;1.58;;;;;;;18.28;nan;99264.75;5117978;27;20186;-72